Time;durP1;ratioP1;P1;durP2;ratioP2;P2;SDS_P1;SDS_P2;PMS_P1;PMS_P2;Temp;Humidity;BMP_temperature;BMP_pressure;BME280_temperature;BME280_humidity;BME280_pressure;Samples;Min_cycle;Max_cycle;Signal;HPM_P1;HPM_P2
2023/10/19 00:00:44;;;;;;;5.55;3.33;;;;;;;;;;5095516;28;20482;-85
2023/10/19 00:03:09;;;;;;;3.90;2.45;;;;;;;;;;5057882;28;20101;-85
2023/10/19 00:05:35;;;;;;;5.57;3.25;;;;;;;;;;5072181;28;20079;-84
2023/10/19 00:10:50;;;;;;;5.07;2.70;;;;;;;;;;5071870;28;20483;-85
2023/10/19 00:13:19;;;;;;;5.28;2.90;;;;;;;;;;5053732;28;20024;-85
2023/10/19 00:15:51;;;;;;;5.85;3.17;;;;;;;;;;5053932;28;20028;-85
2023/10/19 00:23:18;;;;;;;;;;;;;;;;;;5072220;28;20045;-85
2023/10/19 00:25:54;;;;;;;7.75;2.30;;;;;;;;;;5037469;28;19920;-85
2023/10/19 00:28:20;;;;;;;3.58;1.85;;;;;;;;;;5054052;28;20636;-85
2023/10/19 00:30:46;;;;;;;3.53;1.58;;;;;;;;;;5075758;28;20512;-85
2023/10/19 00:33:21;;;;;;;4.82;1.65;;;;;;;;;;5057057;28;20096;-85
2023/10/19 00:41:00;;;;;;;5.53;0.85;;;;;;;;;;5075599;28;20028;-86
2023/10/19 00:43:31;;;;;;;2.25;0.90;;;;;;;;;;5056488;28;20032;-85
2023/10/19 00:45:57;;;;;;;3.72;1.00;;;;;;;;;;5061625;28;20028;-85
2023/10/19 00:48:26;;;;;;;1.48;0.60;;;;;;;;;;5059422;28;20468;-85
2023/10/19 00:50:53;;;;;;;3.05;1.23;;;;;;;;;;5057790;28;20052;-85
2023/10/19 00:53:19;;;;;;;4.10;0.80;;;;;;;;;;5059554;28;20057;-85
2023/10/19 00:55:46;;;;;;;3.55;0.93;;;;;;;;;;5065883;28;20066;-85
2023/10/19 00:58:17;;;;;;;2.50;0.70;;;;;;;;;;5062389;28;20019;-86
2023/10/19 01:00:43;;;;;;;4.40;0.70;;;;;;;;;;5080954;28;20506;-82
2023/10/19 01:03:16;;;;;;;4.00;0.70;;;;;;;;;;5062220;28;20023;-81
2023/10/19 01:05:47;;;;;;;6.85;0.82;;;;;;;;;;5095263;28;20029;-82
2023/10/19 01:08:31;;;;;;;5.72;0.80;;;;;;;;;;5060871;28;20463;-81
2023/10/19 01:10:57;;;;;;;0.82;0.52;;;;;;;;;;5057495;28;20026;-82
2023/10/19 01:13:33;;;;;;;3.42;0.85;;;;;;;;;;5063428;28;20028;-82
2023/10/19 01:16:00;;;;;;;1.98;0.70;;;;;;;;;;5057011;28;20048;-81
2023/10/19 01:18:32;;;;;;;2.05;0.70;;;;;;;;;;5056008;28;20036;-82
2023/10/19 01:21:04;;;;;;;7.50;1.20;;;;;;;;;;5057043;28;20111;-81
2023/10/19 01:23:30;;;;;;;4.68;0.70;;;;;;;;;;5056544;28;20360;-81
2023/10/19 01:28:25;;;;;;;5.28;0.73;;;;;;;;;;5074396;28;20383;-81
2023/10/19 01:30:53;;;;;;;2.17;0.60;;;;;;;;;;5056385;28;20020;-81
2023/10/19 01:33:19;;;;;;;4.18;0.55;;;;;;;;;;5056038;28;20012;-82
2023/10/19 01:38:31;;;;;;;2.42;0.50;;;;;;;;;;5061657;28;20126;-82
2023/10/19 01:40:59;;;;;;;4.20;0.70;;;;;;;;;;5054110;28;20035;-82
2023/10/19 01:43:25;;;;;;;5.15;0.88;;;;;;;;;;5055750;28;20044;-82
2023/10/19 01:45:56;;;;;;;1.75;0.65;;;;;;;;;;5055544;28;20434;-82
2023/10/19 01:48:31;;;;;;;8.93;0.57;;;;;;;;;;5073577;28;20101;-82
2023/10/19 01:50:57;;;;;;;3.55;0.60;;;;;;;;;;5055321;28;20422;-82
2023/10/19 01:53:25;;;;;;;1.40;0.40;;;;;;;;;;5057420;28;20142;-81
2023/10/19 01:55:57;;;;;;;5.47;0.50;;;;;;;;;;5056041;28;20626;-82
2023/10/19 01:58:24;;;;;;;;;;;;;;;;;;5056587;28;20497;-82
2023/10/19 02:00:50;;;;;;;1.35;0.40;;;;;;;;;;5078957;28;19905;-81
2023/10/19 02:03:16;;;;;;;0.93;0.40;;;;;;;;;;5083187;28;20082;-82
2023/10/19 02:05:43;;;;;;;6.10;0.60;;;;;;;;;;5060151;28;20025;-81
2023/10/19 02:08:11;;;;;;;6.40;0.63;;;;;;;;;;5076681;28;20072;-81
2023/10/19 02:10:40;;;;;;;3.47;0.60;;;;;;;;;;5058516;28;20069;-82
2023/10/19 02:13:08;;;;;;;2.95;0.80;;;;;;;;;;5051009;28;20419;-81
2023/10/19 02:15:37;;;;;;;5.50;0.60;;;;;;;;;;5055877;28;20016;-82
2023/10/19 02:18:03;;;;;;;1.45;0.40;;;;;;;;;;5074335;28;20024;-82
2023/10/19 02:20:28;;;;;;;4.15;0.50;;;;;;;;;;5057592;28;20027;-82
2023/10/19 02:22:57;;;;;;;3.75;0.40;;;;;;;;;;5054960;28;20070;-81
2023/10/19 02:25:22;;;;;;;2.78;0.68;;;;;;;;;;5055001;28;20605;-81
2023/10/19 02:27:48;;;;;;;2.17;0.55;;;;;;;;;;5054952;28;20052;-81
2023/10/19 02:30:13;;;;;;;5.80;0.63;;;;;;;;;;5055039;28;20472;-81
2023/10/19 02:32:39;;;;;;;5.88;0.60;;;;;;;;;;5046973;28;20032;-81
2023/10/19 02:35:05;;;;;;;3.95;0.40;;;;;;;;;;5049318;28;20468;-81
2023/10/19 02:37:30;;;;;;;3.60;0.57;;;;;;;;;;5054556;28;20043;-81
2023/10/19 02:39:55;;;;;;;2.80;0.80;;;;;;;;;;5054986;28;20110;-82
2023/10/19 02:42:22;;;;;;;1.27;0.40;;;;;;;;;;5054528;28;20076;-82
2023/10/19 02:44:50;;;;;;;7.80;0.57;;;;;;;;;;5054288;28;20031;-81
2023/10/19 02:47:17;;;;;;;5.47;0.50;;;;;;;;;;5053943;28;20460;-81
2023/10/19 02:49:44;;;;;;;0.85;0.40;;;;;;;;;;5054203;28;20368;-82
2023/10/19 02:52:12;;;;;;;4.82;1.10;;;;;;;;;;5053691;28;20119;-81
2023/10/19 02:54:38;;;;;;;4.07;0.60;;;;;;;;;;5053638;28;20047;-82
2023/10/19 02:57:06;;;;;;;4.05;0.60;;;;;;;;;;5054100;28;20016;-81
2023/10/19 02:59:32;;;;;;;8.48;0.88;;;;;;;;;;5058764;28;20117;-82
2023/10/19 03:02:06;;;;;;;1.40;0.40;;;;;;;;;;5054616;28;20063;-82
2023/10/19 03:04:35;;;;;;;2.92;0.40;;;;;;;;;;5055074;28;20127;-81
2023/10/19 03:07:02;;;;;;;5.03;0.88;;;;;;;;;;5063450;28;20447;-81
2023/10/19 03:09:29;;;;;;;1.42;0.70;;;;;;;;;;5063061;28;20026;-81
2023/10/19 03:12:10;;;;;;;7.85;0.60;;;;;;;;;;5061573;28;20012;-85
2023/10/19 03:14:37;;;;;;;3.45;0.50;;;;;;;;;;5076874;28;20040;-85
2023/10/19 03:17:04;;;;;;;10.15;0.70;;;;;;;;;;5059646;28;20023;-84
2023/10/19 03:19:29;;;;;;;1.92;0.52;;;;;;;;;;5093357;28;20032;-85
2023/10/19 03:21:55;;;;;;;3.05;0.55;;;;;;;;;;5056689;28;20464;-85
2023/10/19 03:24:35;;;;;;;5.50;0.70;;;;;;;;;;5073716;28;20103;-85
2023/10/19 03:27:03;;;;;;;3.95;0.70;;;;;;;;;;5058573;28;20433;-84
2023/10/19 03:29:38;;;;;;;1.35;0.50;;;;;;;;;;5053914;28;20392;-85
2023/10/19 03:32:04;;;;;;;3.22;0.80;;;;;;;;;;5053342;28;20020;-85
2023/10/19 03:34:32;;;;;;;2.58;0.70;;;;;;;;;;5054487;28;20100;-85
2023/10/19 03:37:01;;;;;;;9.80;0.80;;;;;;;;;;5053332;28;20155;-85
2023/10/19 03:39:27;;;;;;;3.90;0.70;;;;;;;;;;5039626;28;20024;-85
2023/10/19 03:41:57;;;;;;;2.55;0.52;;;;;;;;;;5053781;28;20040;-85
2023/10/19 03:44:25;;;;;;;3.40;0.80;;;;;;;;;;5053864;28;20436;-85
2023/10/19 03:46:59;;;;;;;10.02;1.10;;;;;;;;;;5052421;28;20046;-85
2023/10/19 03:49:30;;;;;;;5.93;0.82;;;;;;;;;;5052622;28;20029;-86
2023/10/19 03:51:59;;;;;;;4.78;0.73;;;;;;;;;;5053344;28;20012;-85
2023/10/19 03:54:27;;;;;;;3.80;0.65;;;;;;;;;;5053030;28;20584;-85
2023/10/19 03:56:55;;;;;;;9.52;0.90;;;;;;;;;;5053445;28;20028;-85
2023/10/19 03:59:24;;;;;;;8.30;0.85;;;;;;;;;;5054301;28;20035;-85
2023/10/19 04:01:55;;;;;;;4.20;0.98;;;;;;;;;;5053055;28;20435;-85
2023/10/19 04:04:24;;;;;;;4.90;0.90;;;;;;;;;;5060114;28;20058;-85
2023/10/19 04:06:57;;;;;;;9.48;0.98;;;;;;;;;;5079124;28;20418;-85
2023/10/19 04:09:23;;;;;;;15.43;1.90;;;;;;;;;;5058976;28;20021;-85
2023/10/19 04:11:48;;;;;;;3.92;0.88;;;;;;;;;;5059920;28;20024;-85
2023/10/19 04:14:32;;;;;;;7.03;0.80;;;;;;;;;;5068057;28;20013;-90
2023/10/19 04:16:59;;;;;;;7.38;1.08;;;;;;;;;;5063606;28;20023;-82
2023/10/19 04:19:24;;;;;;;5.75;0.93;;;;;;;;;;5063717;28;20024;-82
2023/10/19 04:21:57;;;;;;;3.85;0.93;;;;;;;;;;5065983;28;20135;-90
2023/10/19 04:24:23;;;;;;;6.32;1.00;;;;;;;;;;5062816;28;20506;-90
2023/10/19 04:26:49;;;;;;;7.93;0.82;;;;;;;;;;5063702;28;20028;-90
2023/10/19 04:29:17;;;;;;;8.02;0.80;;;;;;;;;;5045527;28;20027;-90
2023/10/19 04:31:49;;;;;;;9.52;1.50;;;;;;;;;;5058650;28;20024;-90
2023/10/19 04:34:16;;;;;;;9.88;1.10;;;;;;;;;;5057704;28;20009;-90
2023/10/19 04:36:42;;;;;;;6.60;0.90;;;;;;;;;;5057427;28;20081;-90
2023/10/19 04:39:12;;;;;;;8.95;1.40;;;;;;;;;;5057996;28;20104;-90
2023/10/19 04:41:37;;;;;;;6.88;0.98;;;;;;;;;;5057909;28;20074;-90
2023/10/19 04:44:08;;;;;;;6.38;1.00;;;;;;;;;;5057853;28;20032;-90
2023/10/19 04:46:33;;;;;;;5.45;1.05;;;;;;;;;;5056691;28;20032;-90
2023/10/19 04:48:59;;;;;;;8.02;1.30;;;;;;;;;;5057816;28;20027;-90
2023/10/19 04:51:25;;;;;;;3.92;0.75;;;;;;;;;;5057590;28;20016;-90
2023/10/19 04:53:50;;;;;;;3.53;1.13;;;;;;;;;;5057537;28;20073;-89
2023/10/19 04:56:15;;;;;;;6.25;1.15;;;;;;;;;;5057488;28;20024;-90
2023/10/19 04:58:41;;;;;;;3.38;1.00;;;;;;;;;;5057110;28;20028;-91
2023/10/19 05:01:06;;;;;;;6.38;1.60;;;;;;;;;;5057232;28;20021;-90
2023/10/19 05:03:37;;;;;;;7.20;1.45;;;;;;;;;;5057182;28;20084;-90
2023/10/19 05:06:02;;;;;;;5.50;0.75;;;;;;;;;;5057179;28;20463;-90
2023/10/19 05:08:29;;;;;;;9.90;1.33;;;;;;;;;;5056987;28;20037;-90
2023/10/19 05:10:54;;;;;;;5.38;1.75;;;;;;;;;;5058765;28;20088;-91
2023/10/19 05:13:25;;;;;;;3.90;1.10;;;;;;;;;;5063845;28;20067;-91
2023/10/19 05:15:52;;;;;;;7.05;1.10;;;;;;;;;;5058787;28;20036;-90
2023/10/19 05:18:18;;;;;;;4.70;1.20;;;;;;;;;;5074280;28;20027;-90
2023/10/19 05:20:55;;;;;;;4.13;0.88;;;;;;;;;;5057166;28;20020;-91
2023/10/19 05:23:20;;;;;;;2.60;0.82;;;;;;;;;;5057778;28;20028;-90
2023/10/19 05:25:45;;;;;;;3.00;1.17;;;;;;;;;;5060342;28;20108;-90
2023/10/19 05:28:11;;;;;;;9.43;1.65;;;;;;;;;;5061069;28;20028;-90
2023/10/19 05:30:37;;;;;;;6.22;1.00;;;;;;;;;;5062405;28;20079;-90
2023/10/19 05:33:02;;;;;;;6.13;1.10;;;;;;;;;;5062392;28;20017;-91
2023/10/19 05:35:28;;;;;;;6.47;1.33;;;;;;;;;;5058696;28;20020;-90
2023/10/19 05:37:57;;;;;;;6.63;1.13;;;;;;;;;;5057141;28;20029;-90
2023/10/19 05:40:31;;;;;;;6.50;1.00;;;;;;;;;;5057110;28;20020;-90
2023/10/19 05:42:57;;;;;;;5.38;1.05;;;;;;;;;;5057279;28;20376;-89
2023/10/19 05:45:23;;;;;;;4.32;0.90;;;;;;;;;;5050428;28;20024;-90
2023/10/19 05:47:48;;;;;;;7.03;1.15;;;;;;;;;;5054949;28;20539;-90
2023/10/19 05:50:16;;;;;;;4.93;0.98;;;;;;;;;;5055401;28;20016;-90
2023/10/19 05:52:44;;;;;;;4.43;0.82;;;;;;;;;;5055824;28;20724;-89
2023/10/19 05:55:12;;;;;;;4.70;1.25;;;;;;;;;;5056354;28;20357;-90
2023/10/19 05:57:40;;;;;;;6.63;0.88;;;;;;;;;;5055568;28;20378;-90
2023/10/19 06:00:15;;;;;;;6.35;1.35;;;;;;;;;;5056660;28;20025;-90
2023/10/19 06:02:44;;;;;;;9.75;1.00;;;;;;;;;;5073050;28;20021;-90
2023/10/19 06:05:10;;;;;;;7.63;1.25;;;;;;;;;;5054950;28;20036;-90
2023/10/19 06:07:35;;;;;;;6.60;1.27;;;;;;;;;;5054959;28;20088;-90
2023/10/19 06:10:04;;;;;;;10.40;1.08;;;;;;;;;;5072958;28;20130;-89
2023/10/19 06:12:33;;;;;;;10.27;1.25;;;;;;;;;;5055096;28;20016;-90
2023/10/19 06:15:00;;;;;;;9.77;1.23;;;;;;;;;;5055652;28;20495;-90
2023/10/19 06:17:25;;;;;;;6.95;0.93;;;;;;;;;;5055647;28;20504;-90
2023/10/19 06:19:50;;;;;;;7.13;0.85;;;;;;;;;;5056308;28;20086;-90
2023/10/19 06:22:19;;;;;;;6.78;1.15;;;;;;;;;;5075222;28;20058;-90
2023/10/19 06:24:47;;;;;;;8.60;1.40;;;;;;;;;;5057462;28;20032;-90
2023/10/19 06:27:13;;;;;;;4.65;1.08;;;;;;;;;;5060942;28;20017;-90
2023/10/19 06:29:39;;;;;;;10.02;1.42;;;;;;;;;;5060353;28;20108;-89
2023/10/19 06:32:05;;;;;;;5.07;1.20;;;;;;;;;;5058661;28;20021;-90
2023/10/19 06:34:36;;;;;;;6.53;1.02;;;;;;;;;;5059349;28;20020;-90
2023/10/19 06:37:03;;;;;;;11.23;1.05;;;;;;;;;;5059637;28;20027;-89
2023/10/19 06:39:29;;;;;;;6.95;1.00;;;;;;;;;;5058560;28;20405;-86
2023/10/19 06:41:54;;;;;;;14.73;1.85;;;;;;;;;;5057454;28;20029;-87
2023/10/19 06:44:22;;;;;;;7.45;0.88;;;;;;;;;;5057862;28;20025;-81
2023/10/19 06:46:47;;;;;;;8.25;1.40;;;;;;;;;;5076278;28;20023;-91
2023/10/19 06:49:14;;;;;;;11.90;1.58;;;;;;;;;;5055247;28;20187;-90
2023/10/19 06:51:39;;;;;;;6.22;1.10;;;;;;;;;;5055267;28;20490;-89
2023/10/19 06:54:04;;;;;;;6.60;1.30;;;;;;;;;;5055139;28;20099;-90
2023/10/19 06:56:30;;;;;;;3.10;0.98;;;;;;;;;;5054782;28;20027;-90
2023/10/19 06:58:56;;;;;;;5.75;1.30;;;;;;;;;;5054802;28;20090;-90
2023/10/19 07:01:26;;;;;;;8.68;1.20;;;;;;;;;;5054200;28;20063;-89
2023/10/19 07:03:53;;;;;;;4.85;1.00;;;;;;;;;;5055325;28;20025;-90
2023/10/19 07:06:19;;;;;;;7.65;1.08;;;;;;;;;;5054939;28;20044;-88
2023/10/19 07:08:44;;;;;;;6.07;1.10;;;;;;;;;;5055355;28;20032;-89
2023/10/19 07:11:18;;;;;;;7.40;1.25;;;;;;;;;;5055168;28;20028;-90
2023/10/19 07:13:43;;;;;;;7.93;1.30;;;;;;;;;;5072389;28;20040;-90
2023/10/19 07:16:12;;;;;;;8.40;1.05;;;;;;;;;;5053639;28;20055;-89
2023/10/19 07:18:39;;;;;;;5.47;1.27;;;;;;;;;;5054212;28;20059;-89
2023/10/19 07:21:05;;;;;;;6.65;1.20;;;;;;;;;;5072815;28;20040;-89
2023/10/19 07:23:31;;;;;;;5.57;1.10;;;;;;;;;;5054685;28;20021;-89
2023/10/19 07:26:02;;;;;;;16.50;1.35;;;;;;;;;;5055567;28;20431;-89
2023/10/19 07:28:27;;;;;;;8.43;1.60;;;;;;;;;;5054283;28;20420;-89
2023/10/19 07:30:53;;;;;;;5.05;1.02;;;;;;;;;;5055283;28;20479;-89
2023/10/19 07:33:19;;;;;;;3.67;1.27;;;;;;;;;;5055935;28;20024;-89
2023/10/19 07:35:46;;;;;;;2.55;0.98;;;;;;;;;;5062189;28;20490;-90
2023/10/19 07:38:16;;;;;;;6.82;1.05;;;;;;;;;;5096668;28;20248;-89
2023/10/19 07:40:43;;;;;;;7.10;1.23;;;;;;;;;;5060584;28;20028;-86
2023/10/19 07:43:09;;;;;;;5.15;1.52;;;;;;;;;;5056650;28;20021;-85
2023/10/19 07:45:36;;;;;;;6.32;1.40;;;;;;;;;;5057355;28;20035;-86
2023/10/19 07:48:06;;;;;;;6.65;1.10;;;;;;;;;;5053355;28;20123;-86
2023/10/19 07:50:32;;;;;;;5.00;0.88;;;;;;;;;;5054699;28;20097;-86
2023/10/19 07:52:58;;;;;;;10.55;1.33;;;;;;;;;;5054893;28;20100;-85
2023/10/19 07:55:23;;;;;;;7.95;1.20;;;;;;;;;;5059584;28;20072;-85
2023/10/19 07:57:50;;;;;;;3.47;0.90;;;;;;;;;;5053601;28;20020;-85
2023/10/19 08:00:17;;;;;;;5.90;1.27;;;;;;;;;;5054024;28;20403;-86
2023/10/19 08:02:45;;;;;;;5.55;0.80;;;;;;;;;;5050981;28;20115;-85
2023/10/19 08:05:11;;;;;;;1.98;0.63;;;;;;;;;;5054004;28;20021;-86
2023/10/19 08:07:39;;;;;;;4.32;0.70;;;;;;;;;;5053767;28;20115;-86
2023/10/19 08:10:05;;;;;;;5.72;0.85;;;;;;;;;;5052826;28;20325;-85
2023/10/19 08:12:30;;;;;;;7.50;1.00;;;;;;;;;;5052678;28;20024;-86
2023/10/19 08:14:56;;;;;;;7.82;1.17;;;;;;;;;;5087058;28;20096;-86
2023/10/19 08:17:22;;;;;;;4.95;0.90;;;;;;;;;;5053269;28;20016;-86
2023/10/19 08:19:47;;;;;;;4.78;0.85;;;;;;;;;;5071033;28;20499;-86
2023/10/19 08:22:14;;;;;;;4.78;0.75;;;;;;;;;;5070306;28;20090;-86
2023/10/19 08:24:43;;;;;;;5.82;1.00;;;;;;;;;;5053080;28;20033;-85
2023/10/19 08:27:10;;;;;;;4.30;1.08;;;;;;;;;;5052908;28;20426;-86
2023/10/19 08:29:36;;;;;;;4.65;0.77;;;;;;;;;;5052992;28;20020;-85
2023/10/19 08:32:01;;;;;;;6.25;1.17;;;;;;;;;;5053002;28;20028;-84
2023/10/19 08:34:29;;;;;;;9.82;1.17;;;;;;;;;;5053830;28;20024;-85
2023/10/19 08:36:55;;;;;;;9.40;1.25;;;;;;;;;;5054283;28;20036;-85
2023/10/19 08:39:20;;;;;;;3.72;0.82;;;;;;;;;;5072598;28;20023;-85
2023/10/19 08:41:48;;;;;;;7.82;0.93;;;;;;;;;;5054120;28;20424;-86
2023/10/19 08:44:17;;;;;;;10.32;0.88;;;;;;;;;;5057272;28;20024;-86
2023/10/19 08:46:43;;;;;;;4.97;1.10;;;;;;;;;;5058530;28;20026;-90
2023/10/19 08:49:14;;;;;;;12.93;1.55;;;;;;;;;;5061814;28;20023;-87
2023/10/19 08:51:44;;;;;;;6.40;1.52;;;;;;;;;;5079392;28;20012;-89
2023/10/19 08:54:13;;;;;;;9.98;1.60;;;;;;;;;;5051614;28;20013;-94
2023/10/19 08:56:41;;;;;;;3.63;0.88;;;;;;;;;;5063748;28;20021;-94
2023/10/19 08:59:15;;;;;;;4.93;0.90;;;;;;;;;;5061847;28;20066;-94
2023/10/19 09:01:44;;;;;;;9.93;1.45;;;;;;;;;;5080013;28;20031;-93
2023/10/19 09:04:10;;;;;;;6.82;1.38;;;;;;;;;;5061880;28;20021;-92
2023/10/19 09:06:42;;;;;;;7.82;1.20;;;;;;;;;;5058531;28;20017;-93
2023/10/19 09:09:22;;;;;;;11.88;1.38;;;;;;;;;;5058895;28;20025;-95
2023/10/19 09:11:48;;;;;;;5.78;1.20;;;;;;;;;;5058727;28;20027;-94
2023/10/19 09:14:14;;;;;;;6.88;1.05;;;;;;;;;;5058059;28;20099;-94
2023/10/19 09:16:56;;;;;;;8.18;1.20;;;;;;;;;;5058064;28;20087;-94
2023/10/19 09:19:42;;;;;;;10.10;1.00;;;;;;;;;;5057829;28;20100;-86
2023/10/19 09:22:16;;;;;;;6.68;0.88;;;;;;;;;;5057279;28;20081;-86
2023/10/19 09:24:42;;;;;;;5.07;0.73;;;;;;;;;;5057283;28;20032;-87
2023/10/19 09:27:07;;;;;;;9.15;1.42;;;;;;;;;;5074640;28;20025;-86
2023/10/19 09:29:36;;;;;;;8.98;1.17;;;;;;;;;;5057048;28;20031;-87
2023/10/19 09:32:05;;;;;;;7.55;1.20;;;;;;;;;;5090620;28;20107;-87
2023/10/19 09:34:34;;;;;;;8.23;1.33;;;;;;;;;;5057148;28;20435;-87
2023/10/19 09:37:00;;;;;;;7.20;1.05;;;;;;;;;;5057040;28;20422;-87
2023/10/19 09:39:30;;;;;;;4.25;1.20;;;;;;;;;;5075065;28;20039;-87
2023/10/19 09:41:57;;;;;;;5.50;1.27;;;;;;;;;;5094258;28;20195;-87
2023/10/19 09:44:34;;;;;;;8.25;1.23;;;;;;;;;;5061634;28;20024;-87
2023/10/19 09:47:03;;;;;;;9.75;1.35;;;;;;;;;;5057442;28;20102;-87
2023/10/19 09:49:29;;;;;;;6.40;1.02;;;;;;;;;;5057710;28;20039;-87
2023/10/19 09:51:55;;;;;;;6.13;1.05;;;;;;;;;;5064282;28;20020;-86
2023/10/19 09:54:42;;;;;;;7.25;1.17;;;;;;;;;;5065707;28;20375;-87
2023/10/19 09:57:12;;;;;;;8.90;1.60;;;;;;;;;;5019112;28;20021;-87
2023/10/19 09:59:40;;;;;;;6.97;1.13;;;;;;;;;;5078292;28;20023;-86
2023/10/19 10:02:15;;;;;;;9.55;1.00;;;;;;;;;;5059581;28;20017;-87
2023/10/19 10:04:41;;;;;;;11.45;1.40;;;;;;;;;;5059005;28;20025;-86
2023/10/19 10:07:07;;;;;;;8.07;1.38;;;;;;;;;;5075555;28;20066;-87
2023/10/19 10:09:45;;;;;;;7.03;1.02;;;;;;;;;;5057153;28;20500;-87
2023/10/19 10:12:19;;;;;;;15.43;1.88;;;;;;;;;;5056831;28;20476;-87
2023/10/19 10:14:58;;;;;;;9.68;1.20;;;;;;;;;;5056660;28;20456;-87
2023/10/19 10:17:24;;;;;;;12.63;1.15;;;;;;;;;;5045200;28;20329;-86
2023/10/19 10:19:50;;;;;;;6.45;0.80;;;;;;;;;;5056262;28;20040;-87
2023/10/19 10:22:20;;;;;;;9.00;1.05;;;;;;;;;;5056244;28;20009;-87
2023/10/19 10:24:46;;;;;;;5.53;1.33;;;;;;;;;;5056287;28;20083;-87
2023/10/19 10:27:17;;;;;;;7.53;1.10;;;;;;;;;;5056037;28;20024;-87
2023/10/19 10:30:00;;;;;;;8.80;1.17;;;;;;;;;;5046191;28;20322;-87
2023/10/19 10:32:47;;;;;;;6.50;1.25;;;;;;;;;;5055917;28;20368;-87
2023/10/19 10:35:32;;;;;;;7.03;1.30;;;;;;;;;;5055738;28;20036;-87
2023/10/19 10:37:58;;;;;;;13.60;2.03;;;;;;;;;;5067680;28;20016;-87
2023/10/19 10:40:23;;;;;;;6.85;1.10;;;;;;;;;;5055506;28;20073;-87
2023/10/19 10:42:49;;;;;;;6.75;1.50;;;;;;;;;;5055816;28;20035;-86
2023/10/19 10:45:21;;;;;;;10.35;1.38;;;;;;;;;;5055855;28;20046;-88
2023/10/19 10:47:57;;;;;;;12.48;1.65;;;;;;;;;;5049923;28;20161;-88
2023/10/19 10:50:24;;;;;;;11.02;1.60;;;;;;;;;;5055583;28;20095;-88
2023/10/19 10:52:50;;;;;;;11.23;1.58;;;;;;;;;;5089692;28;20023;-89
2023/10/19 10:55:15;;;;;;;6.90;1.15;;;;;;;;;;5055590;28;20017;-88
2023/10/19 10:57:41;;;;;;;8.80;2.05;;;;;;;;;;5088928;28;20498;-87
2023/10/19 11:00:09;;;;;;;11.15;1.55;;;;;;;;;;5057998;28;20077;-86
2023/10/19 11:03:01;;;;;;;11.10;2.15;;;;;;;;;;5059105;28;20117;-85
2023/10/19 11:05:27;;;;;;;4.63;1.10;;;;;;;;;;5057962;28;20440;-85
2023/10/19 11:08:09;;;;;;;9.38;1.50;;;;;;;;;;5056790;28;20491;-85
2023/10/19 11:10:35;;;;;;;11.45;1.58;;;;;;;;;;5054098;28;20020;-87
2023/10/19 11:13:05;;;;;;;11.10;1.20;;;;;;;;;;5056282;28;20032;-82
2023/10/19 11:15:31;;;;;;;8.90;1.02;;;;;;;;;;5055294;28;20344;-85
2023/10/19 11:17:57;;;;;;;5.18;1.15;;;;;;;;;;5055753;28;20028;-85
2023/10/19 11:20:23;;;;;;;5.82;1.15;;;;;;;;;;5055105;28;20125;-85
2023/10/19 11:22:50;;;;;;;6.80;1.10;;;;;;;;;;5055185;28;20017;-85
2023/10/19 11:25:19;;;;;;;8.00;1.30;;;;;;;;;;5054785;28;20017;-85
2023/10/19 11:27:44;;;;;;;5.88;1.40;;;;;;;;;;5054477;28;20511;-85
2023/10/19 11:30:13;;;;;;;9.32;1.38;;;;;;;;;;5054289;28;20021;-85
2023/10/19 11:32:39;;;;;;;14.68;1.50;;;;;;;;;;5040436;28;20020;-85
2023/10/19 11:35:07;;;;;;;8.63;1.33;;;;;;;;;;5054616;28;20324;-85
2023/10/19 11:37:52;;;;;;;8.85;1.55;;;;;;;;;;5054135;28;20103;-85
2023/10/19 11:40:19;;;;;;;10.10;1.33;;;;;;;;;;5053959;28;20392;-84
2023/10/19 11:42:47;;;;;;;8.00;1.17;;;;;;;;;;5054046;28;20360;-84
2023/10/19 11:45:12;;;;;;;8.20;1.50;;;;;;;;;;5054592;28;20380;-84
2023/10/19 11:47:38;;;;;;;10.15;1.58;;;;;;;;;;5054396;28;20021;-84
2023/10/19 11:50:03;;;;;;;11.80;1.48;;;;;;;;;;5054818;28;20025;-84
2023/10/19 11:52:30;;;;;;;10.68;1.52;;;;;;;;;;5054409;28;20028;-86
2023/10/19 11:54:55;;;;;;;6.18;1.02;;;;;;;;;;5054040;28;20031;-84
2023/10/19 11:57:21;;;;;;;6.28;1.60;;;;;;;;;;5053090;28;20087;-84
2023/10/19 11:59:52;;;;;;;8.25;1.75;;;;;;;;;;5055208;28;20131;-85
2023/10/19 12:02:20;;;;;;;9.25;2.75;;;;;;;;;;5056416;28;20158;-85
2023/10/19 12:04:45;;;;;;;7.38;1.55;;;;;;;;;;5054488;28;20025;-85
2023/10/19 12:07:11;;;;;;;9.52;1.67;;;;;;;;;;5054830;28;20031;-85
2023/10/19 12:09:37;;;;;;;15.95;1.98;;;;;;;;;;5073881;28;20521;-83
2023/10/19 12:12:05;;;;;;;9.05;1.60;;;;;;;;;;5055981;28;20020;-85
2023/10/19 12:14:34;;;;;;;11.65;1.60;;;;;;;;;;5056376;28;20008;-85
2023/10/19 12:17:00;;;;;;;8.23;1.58;;;;;;;;;;5055305;28;20005;-84
2023/10/19 12:19:25;;;;;;;6.95;1.40;;;;;;;;;;5053908;28;20028;-85
2023/10/19 12:21:54;;;;;;;10.20;1.55;;;;;;;;;;5054064;28;20024;-86
2023/10/19 12:24:23;;;;;;;9.23;1.05;;;;;;;;;;5054602;28;20020;-86
2023/10/19 12:26:48;;;;;;;6.40;1.30;;;;;;;;;;5059447;28;20088;-86
2023/10/19 12:29:17;;;;;;;9.38;1.40;;;;;;;;;;5063470;28;20016;-85
2023/10/19 12:31:42;;;;;;;15.55;1.45;;;;;;;;;;5058211;28;20044;-85
2023/10/19 12:34:07;;;;;;;9.10;1.48;;;;;;;;;;5057866;28;20104;-85
2023/10/19 12:36:34;;;;;;;6.90;1.27;;;;;;;;;;5075579;28;20570;-85
2023/10/19 12:39:00;;;;;;;7.63;1.20;;;;;;;;;;5057503;28;20055;-85
2023/10/19 12:41:26;;;;;;;5.95;1.40;;;;;;;;;;5057794;28;20012;-84
2023/10/19 12:43:57;;;;;;;7.88;1.25;;;;;;;;;;5057589;28;20020;-84
2023/10/19 12:46:27;;;;;;;6.47;1.20;;;;;;;;;;5057269;28;20443;-84
2023/10/19 12:48:55;;;;;;;10.23;1.70;;;;;;;;;;5057046;28;20025;-85
2023/10/19 12:51:23;;;;;;;5.95;1.40;;;;;;;;;;5049274;28;20089;-84
2023/10/19 12:53:51;;;;;;;5.53;0.90;;;;;;;;;;5057220;28;20024;-85
2023/10/19 12:56:19;;;;;;;7.00;1.70;;;;;;;;;;5057231;28;20021;-85
2023/10/19 12:58:44;;;;;;;6.72;1.08;;;;;;;;;;5057363;28;20442;-85
2023/10/19 13:01:17;;;;;;;7.07;1.83;;;;;;;;;;5057119;28;20021;-85
2023/10/19 13:03:45;;;;;;;4.30;1.10;;;;;;;;;;5075120;28;20396;-84
2023/10/19 13:06:11;;;;;;;8.48;1.25;;;;;;;;;;5074942;28;20017;-84
2023/10/19 13:08:38;;;;;;;5.55;1.60;;;;;;;;;;5057230;28;20363;-85
2023/10/19 13:11:03;;;;;;;2.60;1.25;;;;;;;;;;5057417;28;20021;-84
2023/10/19 13:13:28;;;;;;;7.20;1.40;;;;;;;;;;5058078;28;20483;-85
2023/10/19 13:15:54;;;;;;;6.70;1.40;;;;;;;;;;5057372;28;20111;-84
2023/10/19 13:18:21;;;;;;;3.20;1.10;;;;;;;;;;5059054;28;20384;-84
2023/10/19 13:20:48;;;;;;;4.70;1.00;;;;;;;;;;5059180;28;20086;-84
2023/10/19 13:23:19;;;;;;;2.90;0.77;;;;;;;;;;5077084;28;20016;-84
2023/10/19 13:25:57;;;;;;;4.95;0.80;;;;;;;;;;5047977;28;20058;-84
2023/10/19 13:28:23;;;;;;;3.08;0.90;;;;;;;;;;5059189;28;20115;-84
2023/10/19 13:30:49;;;;;;;3.05;0.73;;;;;;;;;;5057753;28;20009;-84
2023/10/19 13:33:16;;;;;;;4.93;0.88;;;;;;;;;;5057293;28;20024;-84
2023/10/19 13:35:42;;;;;;;7.72;0.90;;;;;;;;;;5060180;28;20021;-84
2023/10/19 13:38:11;;;;;;;4.63;1.50;;;;;;;;;;5057084;28;20028;-84
2023/10/19 13:40:40;;;;;;;8.30;1.02;;;;;;;;;;5056564;28;20039;-85
2023/10/19 13:43:08;;;;;;;3.53;1.02;;;;;;;;;;5056489;28;20047;-85
2023/10/19 13:45:34;;;;;;;5.90;1.25;;;;;;;;;;5056437;28;20375;-84
2023/10/19 13:48:00;;;;;;;2.05;0.75;;;;;;;;;;5055830;28;20489;-84
2023/10/19 13:50:26;;;;;;;2.53;0.80;;;;;;;;;;5056270;28;20027;-84
2023/10/19 13:52:56;;;;;;;6.32;1.08;;;;;;;;;;5056011;28;20111;-84
2023/10/19 13:55:22;;;;;;;3.67;1.42;;;;;;;;;;5056413;28;20008;-85
2023/10/19 13:57:49;;;;;;;9.30;1.20;;;;;;;;;;5055221;28;20020;-85
2023/10/19 14:00:24;;;;;;;3.97;0.77;;;;;;;;;;5045224;28;20032;-84
2023/10/19 14:02:50;;;;;;;6.25;0.70;;;;;;;;;;5081759;28;20057;-83
2023/10/19 14:05:16;;;;;;;2.85;0.82;;;;;;;;;;5054281;28;20044;-84
2023/10/19 14:07:41;;;;;;;3.60;0.90;;;;;;;;;;5056595;28;20074;-84
2023/10/19 14:10:07;;;;;;;3.42;1.08;;;;;;;;;;5056311;28;20070;-84
2023/10/19 14:12:33;;;;;;;2.83;0.95;;;;;;;;;;5056506;28;20017;-84
2023/10/19 14:14:58;;;;;;;3.15;1.00;;;;;;;;;;5069625;28;20047;-84
2023/10/19 14:17:25;;;;;;;5.38;0.90;;;;;;;;;;5063616;28;20021;-83
2023/10/19 14:19:50;;;;;;;4.75;1.27;;;;;;;;;;5069083;28;20040;-84
2023/10/19 14:22:16;;;;;;;3.13;0.70;;;;;;;;;;5046992;28;20016;-84
2023/10/19 14:24:44;;;;;;;10.65;1.13;;;;;;;;;;5058397;28;20032;-84
2023/10/19 14:27:10;;;;;;;1.13;0.70;;;;;;;;;;5059180;28;20016;-84
2023/10/19 14:29:35;;;;;;;9.25;1.02;;;;;;;;;;5059370;28;20042;-84
2023/10/19 14:32:02;;;;;;;6.40;1.35;;;;;;;;;;5053934;28;20107;-84
2023/10/19 14:34:29;;;;;;;6.30;1.20;;;;;;;;;;5057391;28;20035;-83
2023/10/19 14:36:57;;;;;;;4.85;1.10;;;;;;;;;;5057777;28;20032;-85
2023/10/19 14:39:25;;;;;;;4.45;1.08;;;;;;;;;;5056270;28;20031;-85
2023/10/19 14:41:53;;;;;;;2.35;0.82;;;;;;;;;;5073520;28;20096;-85
2023/10/19 14:44:18;;;;;;;4.97;0.80;;;;;;;;;;5055146;28;20100;-84
2023/10/19 14:46:44;;;;;;;4.72;1.05;;;;;;;;;;5053881;28;20115;-85
2023/10/19 14:49:09;;;;;;;7.40;0.90;;;;;;;;;;5053595;28;20365;-84
2023/10/19 14:51:34;;;;;;;3.50;1.00;;;;;;;;;;5054102;28;20073;-83
2023/10/19 14:54:00;;;;;;;2.08;1.02;;;;;;;;;;5052601;28;20033;-84
2023/10/19 14:56:26;;;;;;;4.38;0.95;;;;;;;;;;5054450;28;20048;-84
2023/10/19 14:58:51;;;;;;;6.40;0.80;;;;;;;;;;5054936;28;20361;-84
2023/10/19 15:01:26;;;;;;;1.13;0.77;;;;;;;;;;5073393;28;20076;-84
2023/10/19 15:03:51;;;;;;;5.35;1.10;;;;;;;;;;5055127;28;20483;-84
2023/10/19 15:06:18;;;;;;;3.33;0.70;;;;;;;;;;5054744;28;20021;-84